sensor_id;sensor_type;location;lat;lon;timestamp;temperature;humidity
54518;DHT22;40423;53.176;6.002;2022-07-11T00:00:09;16.40;99.90
54518;DHT22;40423;53.176;6.002;2022-07-11T00:02:36;16.40;99.90
54518;DHT22;40423;53.176;6.002;2022-07-11T00:05:02;16.40;99.90
54518;DHT22;40423;53.176;6.002;2022-07-11T00:07:28;16.40;99.90
54518;DHT22;40423;53.176;6.002;2022-07-11T00:09:54;16.40;99.90
54518;DHT22;40423;53.176;6.002;2022-07-11T00:12:20;16.40;99.90
54518;DHT22;40423;53.176;6.002;2022-07-11T00:14:47;16.30;99.90
54518;DHT22;40423;53.176;6.002;2022-07-11T00:17:13;16.30;99.90
54518;DHT22;40423;53.176;6.002;2022-07-11T00:19:39;16.30;99.90
54518;DHT22;40423;53.176;6.002;2022-07-11T00:22:05;16.30;99.90
54518;DHT22;40423;53.176;6.002;2022-07-11T00:24:32;16.30;99.90
54518;DHT22;40423;53.176;6.002;2022-07-11T00:26:58;16.20;99.90
54518;DHT22;40423;53.176;6.002;2022-07-11T00:29:24;16.20;99.90
54518;DHT22;40423;53.176;6.002;2022-07-11T00:31:49;16.20;99.90
54518;DHT22;40423;53.176;6.002;2022-07-11T00:34:15;16.20;99.90
54518;DHT22;40423;53.176;6.002;2022-07-11T00:36:43;16.20;99.90
54518;DHT22;40423;53.176;6.002;2022-07-11T00:39:09;16.20;99.90
54518;DHT22;40423;53.176;6.002;2022-07-11T00:41:34;16.10;99.90
54518;DHT22;40423;53.176;6.002;2022-07-11T00:44:00;16.10;99.90
54518;DHT22;40423;53.176;6.002;2022-07-11T00:46:28;16.10;99.90
54518;DHT22;40423;53.176;6.002;2022-07-11T00:48:55;16.10;99.90
54518;DHT22;40423;53.176;6.002;2022-07-11T00:51:22;16.10;99.90
54518;DHT22;40423;53.176;6.002;2022-07-11T00:53:53;16.10;99.90
54518;DHT22;40423;53.176;6.002;2022-07-11T00:56:20;16.10;99.90
54518;DHT22;40423;53.176;6.002;2022-07-11T00:58:50;16.10;99.90
54518;DHT22;40423;53.176;6.002;2022-07-11T01:01:16;16.00;99.90
54518;DHT22;40423;53.176;6.002;2022-07-11T01:03:42;16.00;99.90
54518;DHT22;40423;53.176;6.002;2022-07-11T01:06:08;16.00;99.90
54518;DHT22;40423;53.176;6.002;2022-07-11T01:08:35;16.00;99.90
54518;DHT22;40423;53.176;6.002;2022-07-11T01:11:02;16.00;99.90
54518;DHT22;40423;53.176;6.002;2022-07-11T01:13:29;16.00;99.90
54518;DHT22;40423;53.176;6.002;2022-07-11T01:16:09;16.00;99.90
54518;DHT22;40423;53.176;6.002;2022-07-11T01:18:35;16.00;99.90
54518;DHT22;40423;53.176;6.002;2022-07-11T01:21:04;16.10;99.90
54518;DHT22;40423;53.176;6.002;2022-07-11T01:23:33;16.10;99.90
54518;DHT22;40423;53.176;6.002;2022-07-11T01:25:59;16.10;99.90
54518;DHT22;40423;53.176;6.002;2022-07-11T01:28:25;16.10;99.90
54518;DHT22;40423;53.176;6.002;2022-07-11T01:30:50;16.10;99.90
54518;DHT22;40423;53.176;6.002;2022-07-11T01:33:16;16.10;99.90
54518;DHT22;40423;53.176;6.002;2022-07-11T01:35:42;16.00;99.90
54518;DHT22;40423;53.176;6.002;2022-07-11T01:38:07;16.00;99.90
54518;DHT22;40423;53.176;6.002;2022-07-11T01:40:33;16.00;99.90
54518;DHT22;40423;53.176;6.002;2022-07-11T01:42:59;16.00;99.90
54518;DHT22;40423;53.176;6.002;2022-07-11T01:45:24;16.00;99.90
54518;DHT22;40423;53.176;6.002;2022-07-11T01:47:50;16.00;99.90
54518;DHT22;40423;53.176;6.002;2022-07-11T01:50:16;16.00;99.90
54518;DHT22;40423;53.176;6.002;2022-07-11T01:52:41;16.00;99.90
54518;DHT22;40423;53.176;6.002;2022-07-11T01:55:07;16.00;99.90
54518;DHT22;40423;53.176;6.002;2022-07-11T01:57:34;16.00;99.90
54518;DHT22;40423;53.176;6.002;2022-07-11T01:59:59;16.00;99.90
54518;DHT22;40423;53.176;6.002;2022-07-11T02:02:25;16.00;99.90
54518;DHT22;40423;53.176;6.002;2022-07-11T02:04:50;16.00;99.90
54518;DHT22;40423;53.176;6.002;2022-07-11T02:07:16;16.00;99.90
54518;DHT22;40423;53.176;6.002;2022-07-11T02:10:02;16.00;99.90
54518;DHT22;40423;53.176;6.002;2022-07-11T02:12:28;16.00;99.90
54518;DHT22;40423;53.176;6.002;2022-07-11T02:14:53;16.00;99.90
54518;DHT22;40423;53.176;6.002;2022-07-11T02:17:19;16.00;99.90
54518;DHT22;40423;53.176;6.002;2022-07-11T02:19:45;16.00;99.90
54518;DHT22;40423;53.176;6.002;2022-07-11T02:22:11;16.00;99.90
54518;DHT22;40423;53.176;6.002;2022-07-11T02:24:36;16.00;99.90
54518;DHT22;40423;53.176;6.002;2022-07-11T02:27:02;16.00;99.90
54518;DHT22;40423;53.176;6.002;2022-07-11T02:29:28;16.00;99.90
54518;DHT22;40423;53.176;6.002;2022-07-11T02:31:54;16.00;99.90
54518;DHT22;40423;53.176;6.002;2022-07-11T02:34:19;15.90;99.90
54518;DHT22;40423;53.176;6.002;2022-07-11T02:36:45;15.90;99.90
54518;DHT22;40423;53.176;6.002;2022-07-11T02:39:11;15.90;99.90
54518;DHT22;40423;53.176;6.002;2022-07-11T02:41:36;15.90;99.90
54518;DHT22;40423;53.176;6.002;2022-07-11T02:44:02;15.90;99.90
54518;DHT22;40423;53.176;6.002;2022-07-11T02:46:28;15.90;99.90
54518;DHT22;40423;53.176;6.002;2022-07-11T02:48:54;15.90;99.90
54518;DHT22;40423;53.176;6.002;2022-07-11T02:51:19;15.90;99.90
54518;DHT22;40423;53.176;6.002;2022-07-11T02:53:45;16.00;99.90
54518;DHT22;40423;53.176;6.002;2022-07-11T02:56:10;16.00;99.90
54518;DHT22;40423;53.176;6.002;2022-07-11T02:58:38;15.90;99.90
54518;DHT22;40423;53.176;6.002;2022-07-11T03:01:04;16.00;99.90
54518;DHT22;40423;53.176;6.002;2022-07-11T03:03:30;16.00;99.90
54518;DHT22;40423;53.176;6.002;2022-07-11T03:05:56;16.00;99.90
54518;DHT22;40423;53.176;6.002;2022-07-11T03:08:22;16.00;99.90
54518;DHT22;40423;53.176;6.002;2022-07-11T03:10:48;16.00;99.90
54518;DHT22;40423;53.176;6.002;2022-07-11T03:13:14;16.00;99.90
54518;DHT22;40423;53.176;6.002;2022-07-11T03:15:40;16.00;99.90
54518;DHT22;40423;53.176;6.002;2022-07-11T03:18:06;15.90;99.90
54518;DHT22;40423;53.176;6.002;2022-07-11T03:20:33;15.90;99.90
54518;DHT22;40423;53.176;6.002;2022-07-11T03:22:58;16.00;99.90
54518;DHT22;40423;53.176;6.002;2022-07-11T03:25:24;15.90;99.90
54518;DHT22;40423;53.176;6.002;2022-07-11T03:27:50;16.00;99.90
54518;DHT22;40423;53.176;6.002;2022-07-11T03:30:16;15.90;99.90
54518;DHT22;40423;53.176;6.002;2022-07-11T03:32:42;15.90;99.90
54518;DHT22;40423;53.176;6.002;2022-07-11T03:35:08;15.90;99.90
54518;DHT22;40423;53.176;6.002;2022-07-11T03:37:52;15.90;99.90
54518;DHT22;40423;53.176;6.002;2022-07-11T03:40:18;15.90;99.90
54518;DHT22;40423;53.176;6.002;2022-07-11T03:42:43;15.90;99.90
54518;DHT22;40423;53.176;6.002;2022-07-11T03:45:10;15.90;99.90
54518;DHT22;40423;53.176;6.002;2022-07-11T03:47:36;15.90;99.90
54518;DHT22;40423;53.176;6.002;2022-07-11T03:50:03;15.90;99.90
54518;DHT22;40423;53.176;6.002;2022-07-11T03:52:28;15.90;99.90
54518;DHT22;40423;53.176;6.002;2022-07-11T03:54:54;15.90;99.90
54518;DHT22;40423;53.176;6.002;2022-07-11T03:57:20;15.90;99.90
54518;DHT22;40423;53.176;6.002;2022-07-11T03:59:46;15.90;99.90
54518;DHT22;40423;53.176;6.002;2022-07-11T04:02:11;15.90;99.90
54518;DHT22;40423;53.176;6.002;2022-07-11T04:04:37;15.90;99.90
54518;DHT22;40423;53.176;6.002;2022-07-11T04:07:03;15.90;99.90
54518;DHT22;40423;53.176;6.002;2022-07-11T04:09:29;16.00;99.90
54518;DHT22;40423;53.176;6.002;2022-07-11T04:11:54;16.00;99.90
54518;DHT22;40423;53.176;6.002;2022-07-11T04:14:20;16.00;99.90
54518;DHT22;40423;53.176;6.002;2022-07-11T04:16:46;16.00;99.90
54518;DHT22;40423;53.176;6.002;2022-07-11T04:19:12;16.00;99.90
54518;DHT22;40423;53.176;6.002;2022-07-11T04:21:37;16.00;99.90
54518;DHT22;40423;53.176;6.002;2022-07-11T04:24:03;16.00;99.90
54518;DHT22;40423;53.176;6.002;2022-07-11T04:26:29;16.00;99.90
54518;DHT22;40423;53.176;6.002;2022-07-11T04:28:55;16.00;99.90
54518;DHT22;40423;53.176;6.002;2022-07-11T04:31:21;16.00;99.90
54518;DHT22;40423;53.176;6.002;2022-07-11T04:33:46;16.00;99.90
54518;DHT22;40423;53.176;6.002;2022-07-11T04:36:12;16.00;99.90
54518;DHT22;40423;53.176;6.002;2022-07-11T04:38:38;16.00;99.90
54518;DHT22;40423;53.176;6.002;2022-07-11T04:41:04;16.00;99.90
54518;DHT22;40423;53.176;6.002;2022-07-11T04:43:29;16.00;99.90
54518;DHT22;40423;53.176;6.002;2022-07-11T04:45:55;16.00;99.90
54518;DHT22;40423;53.176;6.002;2022-07-11T04:48:21;16.00;99.90
54518;DHT22;40423;53.176;6.002;2022-07-11T04:50:47;16.00;99.90
54518;DHT22;40423;53.176;6.002;2022-07-11T04:53:12;16.00;99.90
54518;DHT22;40423;53.176;6.002;2022-07-11T04:55:39;15.90;99.90
54518;DHT22;40423;53.176;6.002;2022-07-11T04:58:07;15.90;99.90
54518;DHT22;40423;53.176;6.002;2022-07-11T05:00:35;15.90;99.90
54518;DHT22;40423;53.176;6.002;2022-07-11T05:03:01;15.90;99.90
54518;DHT22;40423;53.176;6.002;2022-07-11T05:05:27;16.00;99.90
54518;DHT22;40423;53.176;6.002;2022-07-11T05:07:53;16.00;99.90
54518;DHT22;40423;53.176;6.002;2022-07-11T05:10:19;16.00;99.90
54518;DHT22;40423;53.176;6.002;2022-07-11T05:12:44;16.00;99.90
54518;DHT22;40423;53.176;6.002;2022-07-11T05:15:10;16.00;99.90
54518;DHT22;40423;53.176;6.002;2022-07-11T05:17:36;16.00;99.90
54518;DHT22;40423;53.176;6.002;2022-07-11T05:20:02;16.00;99.90
54518;DHT22;40423;53.176;6.002;2022-07-11T05:22:28;16.10;99.90
54518;DHT22;40423;53.176;6.002;2022-07-11T05:24:54;16.10;99.90
54518;DHT22;40423;53.176;6.002;2022-07-11T05:27:20;16.10;99.90
54518;DHT22;40423;53.176;6.002;2022-07-11T05:29:46;16.10;99.90
54518;DHT22;40423;53.176;6.002;2022-07-11T05:32:11;16.10;99.90
54518;DHT22;40423;53.176;6.002;2022-07-11T05:34:37;16.10;99.90
54518;DHT22;40423;53.176;6.002;2022-07-11T05:37:03;16.10;99.90
54518;DHT22;40423;53.176;6.002;2022-07-11T05:39:29;16.10;99.90
54518;DHT22;40423;53.176;6.002;2022-07-11T05:41:55;16.10;99.90
54518;DHT22;40423;53.176;6.002;2022-07-11T05:44:21;16.10;99.90
54518;DHT22;40423;53.176;6.002;2022-07-11T05:46:47;16.20;99.90
54518;DHT22;40423;53.176;6.002;2022-07-11T05:49:12;16.20;99.90
54518;DHT22;40423;53.176;6.002;2022-07-11T05:51:38;16.20;99.90
54518;DHT22;40423;53.176;6.002;2022-07-11T05:54:05;16.20;99.90
54518;DHT22;40423;53.176;6.002;2022-07-11T05:56:31;16.20;99.90
54518;DHT22;40423;53.176;6.002;2022-07-11T05:58:58;16.20;99.90
54518;DHT22;40423;53.176;6.002;2022-07-11T06:01:24;16.30;99.90
54518;DHT22;40423;53.176;6.002;2022-07-11T06:03:50;16.30;99.90
54518;DHT22;40423;53.176;6.002;2022-07-11T06:06:16;16.30;99.90
54518;DHT22;40423;53.176;6.002;2022-07-11T06:08:43;16.30;99.90
54518;DHT22;40423;53.176;6.002;2022-07-11T06:11:13;16.20;99.90
54518;DHT22;40423;53.176;6.002;2022-07-11T06:13:42;16.30;99.90
54518;DHT22;40423;53.176;6.002;2022-07-11T06:16:08;16.30;99.90
54518;DHT22;40423;53.176;6.002;2022-07-11T06:18:35;16.30;99.90
54518;DHT22;40423;53.176;6.002;2022-07-11T06:21:01;16.30;99.90
54518;DHT22;40423;53.176;6.002;2022-07-11T06:23:27;16.30;99.90
54518;DHT22;40423;53.176;6.002;2022-07-11T06:25:54;16.30;99.90
54518;DHT22;40423;53.176;6.002;2022-07-11T06:28:19;16.30;99.90
54518;DHT22;40423;53.176;6.002;2022-07-11T06:30:45;16.30;99.90
54518;DHT22;40423;53.176;6.002;2022-07-11T06:33:11;16.40;99.90
54518;DHT22;40423;53.176;6.002;2022-07-11T06:35:37;16.40;99.90
54518;DHT22;40423;53.176;6.002;2022-07-11T06:38:03;16.40;99.90
54518;DHT22;40423;53.176;6.002;2022-07-11T06:40:29;16.40;99.90
54518;DHT22;40423;53.176;6.002;2022-07-11T06:42:54;16.50;99.90
54518;DHT22;40423;53.176;6.002;2022-07-11T06:45:20;16.50;99.90
54518;DHT22;40423;53.176;6.002;2022-07-11T06:47:46;16.60;99.90
54518;DHT22;40423;53.176;6.002;2022-07-11T06:50:12;16.50;99.90
54518;DHT22;40423;53.176;6.002;2022-07-11T06:52:38;16.60;99.90
54518;DHT22;40423;53.176;6.002;2022-07-11T06:55:04;16.70;99.90
54518;DHT22;40423;53.176;6.002;2022-07-11T06:57:30;16.80;99.90
54518;DHT22;40423;53.176;6.002;2022-07-11T06:59:55;16.90;99.90
54518;DHT22;40423;53.176;6.002;2022-07-11T07:02:21;16.90;99.90
54518;DHT22;40423;53.176;6.002;2022-07-11T07:04:51;16.90;99.90
54518;DHT22;40423;53.176;6.002;2022-07-11T07:07:17;16.80;99.90
54518;DHT22;40423;53.176;6.002;2022-07-11T07:09:43;16.80;99.90
54518;DHT22;40423;53.176;6.002;2022-07-11T07:12:08;16.90;99.90
54518;DHT22;40423;53.176;6.002;2022-07-11T07:14:34;16.90;99.90
54518;DHT22;40423;53.176;6.002;2022-07-11T07:17:00;16.80;99.90
54518;DHT22;40423;53.176;6.002;2022-07-11T07:19:26;16.90;99.90
54518;DHT22;40423;53.176;6.002;2022-07-11T07:21:51;17.00;99.90
54518;DHT22;40423;53.176;6.002;2022-07-11T07:24:17;17.00;99.90
54518;DHT22;40423;53.176;6.002;2022-07-11T07:26:42;17.00;99.90
54518;DHT22;40423;53.176;6.002;2022-07-11T07:29:08;17.10;99.90
54518;DHT22;40423;53.176;6.002;2022-07-11T07:31:34;17.10;99.90
54518;DHT22;40423;53.176;6.002;2022-07-11T07:33:59;17.20;99.90
54518;DHT22;40423;53.176;6.002;2022-07-11T07:36:25;17.20;99.90
54518;DHT22;40423;53.176;6.002;2022-07-11T07:38:51;17.20;99.90
54518;DHT22;40423;53.176;6.002;2022-07-11T07:41:17;17.20;99.90
54518;DHT22;40423;53.176;6.002;2022-07-11T07:43:43;17.20;99.90
54518;DHT22;40423;53.176;6.002;2022-07-11T07:46:09;17.20;99.90
54518;DHT22;40423;53.176;6.002;2022-07-11T07:48:36;17.30;99.90
54518;DHT22;40423;53.176;6.002;2022-07-11T07:51:02;17.30;99.90
54518;DHT22;40423;53.176;6.002;2022-07-11T07:53:28;17.30;99.90
54518;DHT22;40423;53.176;6.002;2022-07-11T07:55:53;17.40;99.90
54518;DHT22;40423;53.176;6.002;2022-07-11T07:58:19;17.50;99.90
54518;DHT22;40423;53.176;6.002;2022-07-11T08:00:45;17.60;99.90
54518;DHT22;40423;53.176;6.002;2022-07-11T08:03:46;17.70;99.90
54518;DHT22;40423;53.176;6.002;2022-07-11T08:06:11;17.70;99.90
54518;DHT22;40423;53.176;6.002;2022-07-11T08:08:37;17.60;99.90
54518;DHT22;40423;53.176;6.002;2022-07-11T08:11:03;17.50;99.90
54518;DHT22;40423;53.176;6.002;2022-07-11T08:13:29;17.60;99.90
54518;DHT22;40423;53.176;6.002;2022-07-11T08:15:55;17.70;99.90
54518;DHT22;40423;53.176;6.002;2022-07-11T08:18:21;17.70;99.90
54518;DHT22;40423;53.176;6.002;2022-07-11T08:20:47;17.80;99.90
54518;DHT22;40423;53.176;6.002;2022-07-11T08:23:13;17.80;99.90
54518;DHT22;40423;53.176;6.002;2022-07-11T08:25:40;17.90;99.90
54518;DHT22;40423;53.176;6.002;2022-07-11T08:28:06;18.20;99.90
54518;DHT22;40423;53.176;6.002;2022-07-11T08:30:32;18.10;99.90
54518;DHT22;40423;53.176;6.002;2022-07-11T08:32:58;18.00;99.90
54518;DHT22;40423;53.176;6.002;2022-07-11T08:35:24;18.00;99.90
54518;DHT22;40423;53.176;6.002;2022-07-11T08:37:50;18.00;99.90
54518;DHT22;40423;53.176;6.002;2022-07-11T08:40:16;18.00;99.90
54518;DHT22;40423;53.176;6.002;2022-07-11T08:42:43;18.10;99.90
54518;DHT22;40423;53.176;6.002;2022-07-11T08:45:14;18.10;99.90
54518;DHT22;40423;53.176;6.002;2022-07-11T08:47:40;18.20;99.90
54518;DHT22;40423;53.176;6.002;2022-07-11T08:50:07;18.30;99.90
54518;DHT22;40423;53.176;6.002;2022-07-11T08:52:33;18.30;99.90
54518;DHT22;40423;53.176;6.002;2022-07-11T08:54:59;18.40;99.90
54518;DHT22;40423;53.176;6.002;2022-07-11T08:57:25;18.30;99.90
54518;DHT22;40423;53.176;6.002;2022-07-11T08:59:55;18.30;99.90
54518;DHT22;40423;53.176;6.002;2022-07-11T09:02:24;18.20;99.90
54518;DHT22;40423;53.176;6.002;2022-07-11T09:04:50;18.20;99.90
54518;DHT22;40423;53.176;6.002;2022-07-11T09:07:16;18.20;99.90
54518;DHT22;40423;53.176;6.002;2022-07-11T09:09:42;18.20;99.90
54518;DHT22;40423;53.176;6.002;2022-07-11T09:12:12;18.10;99.90
54518;DHT22;40423;53.176;6.002;2022-07-11T09:14:38;18.20;99.90
54518;DHT22;40423;53.176;6.002;2022-07-11T09:17:06;18.20;99.90
54518;DHT22;40423;53.176;6.002;2022-07-11T09:19:36;18.20;99.90
54518;DHT22;40423;53.176;6.002;2022-07-11T09:22:10;18.20;99.90
54518;DHT22;40423;53.176;6.002;2022-07-11T09:24:56;18.30;99.90
54518;DHT22;40423;53.176;6.002;2022-07-11T09:27:52;18.20;99.90
54518;DHT22;40423;53.176;6.002;2022-07-11T09:30:28;18.20;99.90
54518;DHT22;40423;53.176;6.002;2022-07-11T09:33:09;18.40;99.90
54518;DHT22;40423;53.176;6.002;2022-07-11T09:35:42;18.70;99.90
54518;DHT22;40423;53.176;6.002;2022-07-11T09:38:12;18.90;99.90
54518;DHT22;40423;53.176;6.002;2022-07-11T09:40:43;19.00;99.90
54518;DHT22;40423;53.176;6.002;2022-07-11T09:43:09;19.10;99.90
54518;DHT22;40423;53.176;6.002;2022-07-11T09:45:35;19.20;99.90
54518;DHT22;40423;53.176;6.002;2022-07-11T09:48:09;19.30;99.90
54518;DHT22;40423;53.176;6.002;2022-07-11T09:50:35;19.30;99.90
54518;DHT22;40423;53.176;6.002;2022-07-11T09:53:19;19.30;99.90
54518;DHT22;40423;53.176;6.002;2022-07-11T09:55:46;19.40;99.90
54518;DHT22;40423;53.176;6.002;2022-07-11T09:58:15;19.30;99.90
54518;DHT22;40423;53.176;6.002;2022-07-11T10:00:43;19.40;99.90
54518;DHT22;40423;53.176;6.002;2022-07-11T10:03:11;19.60;99.90
54518;DHT22;40423;53.176;6.002;2022-07-11T10:05:37;19.80;99.90
54518;DHT22;40423;53.176;6.002;2022-07-11T10:08:04;19.90;99.90
54518;DHT22;40423;53.176;6.002;2022-07-11T10:10:31;19.70;99.90
54518;DHT22;40423;53.176;6.002;2022-07-11T10:12:58;19.70;99.90
54518;DHT22;40423;53.176;6.002;2022-07-11T10:15:31;19.80;99.90
54518;DHT22;40423;53.176;6.002;2022-07-11T10:20:53;19.70;99.90
54518;DHT22;40423;53.176;6.002;2022-07-11T10:29:01;19.80;99.90
54518;DHT22;40423;53.176;6.002;2022-07-11T10:31:29;19.70;99.90
54518;DHT22;40423;53.176;6.002;2022-07-11T10:34:04;19.70;99.90
54518;DHT22;40423;53.176;6.002;2022-07-11T10:36:32;19.50;99.90
54518;DHT22;40423;53.176;6.002;2022-07-11T10:39:21;19.50;99.90
54518;DHT22;40423;53.176;6.002;2022-07-11T10:41:51;19.70;99.90
54518;DHT22;40423;53.176;6.002;2022-07-11T10:44:17;19.80;99.90
54518;DHT22;40423;53.176;6.002;2022-07-11T10:46:43;20.00;99.90
54518;DHT22;40423;53.176;6.002;2022-07-11T10:59:28;20.40;99.90
54518;DHT22;40423;53.176;6.002;2022-07-11T11:02:11;20.50;99.90
54518;DHT22;40423;53.176;6.002;2022-07-11T11:05:00;20.50;99.90
54518;DHT22;40423;53.176;6.002;2022-07-11T11:07:42;20.50;99.90
54518;DHT22;40423;53.176;6.002;2022-07-11T11:15:50;20.20;99.90
54518;DHT22;40423;53.176;6.002;2022-07-11T11:23:43;20.30;99.90
54518;DHT22;40423;53.176;6.002;2022-07-11T11:26:19;20.40;99.90
54518;DHT22;40423;53.176;6.002;2022-07-11T11:29:05;20.40;99.90
54518;DHT22;40423;53.176;6.002;2022-07-11T11:31:32;20.30;99.90
54518;DHT22;40423;53.176;6.002;2022-07-11T11:34:02;20.20;99.90
54518;DHT22;40423;53.176;6.002;2022-07-11T11:36:29;20.30;99.90
54518;DHT22;40423;53.176;6.002;2022-07-11T11:38:55;20.20;99.90
54518;DHT22;40423;53.176;6.002;2022-07-11T11:41:25;20.20;99.90
54518;DHT22;40423;53.176;6.002;2022-07-11T11:43:53;20.10;99.90
54518;DHT22;40423;53.176;6.002;2022-07-11T11:46:24;19.80;99.90
54518;DHT22;40423;53.176;6.002;2022-07-11T11:48:50;19.90;99.90
54518;DHT22;40423;53.176;6.002;2022-07-11T11:51:17;19.70;99.90
54518;DHT22;40423;53.176;6.002;2022-07-11T11:53:51;19.70;99.90
54518;DHT22;40423;53.176;6.002;2022-07-11T11:59:12;19.80;99.90
54518;DHT22;40423;53.176;6.002;2022-07-11T12:01:43;19.80;99.90
54518;DHT22;40423;53.176;6.002;2022-07-11T12:04:14;19.70;99.90
54518;DHT22;40423;53.176;6.002;2022-07-11T12:06:46;19.70;99.90
54518;DHT22;40423;53.176;6.002;2022-07-11T12:09:14;19.70;99.90
54518;DHT22;40423;53.176;6.002;2022-07-11T12:11:45;19.70;99.90
54518;DHT22;40423;53.176;6.002;2022-07-11T12:14:13;19.60;99.90
54518;DHT22;40423;53.176;6.002;2022-07-11T12:16:43;19.70;99.90
54518;DHT22;40423;53.176;6.002;2022-07-11T12:19:11;19.70;99.90
54518;DHT22;40423;53.176;6.002;2022-07-11T12:21:38;19.60;99.90
54518;DHT22;40423;53.176;6.002;2022-07-11T12:24:07;19.50;99.90
54518;DHT22;40423;53.176;6.002;2022-07-11T12:26:36;19.60;99.90
54518;DHT22;40423;53.176;6.002;2022-07-11T12:31:46;19.50;99.90
54518;DHT22;40423;53.176;6.002;2022-07-11T12:34:13;19.40;99.90
54518;DHT22;40423;53.176;6.002;2022-07-11T12:36:39;19.40;99.90
54518;DHT22;40423;53.176;6.002;2022-07-11T12:39:05;19.40;99.90
54518;DHT22;40423;53.176;6.002;2022-07-11T12:41:32;19.50;99.90
54518;DHT22;40423;53.176;6.002;2022-07-11T12:43:58;19.50;99.90
54518;DHT22;40423;53.176;6.002;2022-07-11T12:46:43;19.40;99.90
54518;DHT22;40423;53.176;6.002;2022-07-11T12:49:12;19.40;99.90
54518;DHT22;40423;53.176;6.002;2022-07-11T12:51:40;19.30;99.90
54518;DHT22;40423;53.176;6.002;2022-07-11T12:54:14;19.50;99.90
54518;DHT22;40423;53.176;6.002;2022-07-11T12:56:41;19.50;99.90
54518;DHT22;40423;53.176;6.002;2022-07-11T12:59:21;19.50;99.90
54518;DHT22;40423;53.176;6.002;2022-07-11T13:04:38;19.40;99.90
54518;DHT22;40423;53.176;6.002;2022-07-11T13:07:26;19.40;99.90
54518;DHT22;40423;53.176;6.002;2022-07-11T13:12:40;19.50;99.90
54518;DHT22;40423;53.176;6.002;2022-07-11T13:15:08;19.40;99.90
54518;DHT22;40423;53.176;6.002;2022-07-11T13:17:49;19.40;99.90
54518;DHT22;40423;53.176;6.002;2022-07-11T13:20:23;19.50;99.90
54518;DHT22;40423;53.176;6.002;2022-07-11T13:22:50;19.60;99.90
54518;DHT22;40423;53.176;6.002;2022-07-11T13:25:20;19.40;99.90
54518;DHT22;40423;53.176;6.002;2022-07-11T13:27:47;19.40;99.90
54518;DHT22;40423;53.176;6.002;2022-07-11T13:30:15;19.30;99.90
54518;DHT22;40423;53.176;6.002;2022-07-11T13:32:49;19.20;99.90
54518;DHT22;40423;53.176;6.002;2022-07-11T13:35:17;19.40;99.90
54518;DHT22;40423;53.176;6.002;2022-07-11T13:37:44;19.50;99.90
54518;DHT22;40423;53.176;6.002;2022-07-11T13:40:12;19.60;99.90
54518;DHT22;40423;53.176;6.002;2022-07-11T13:42:39;19.70;99.90
54518;DHT22;40423;53.176;6.002;2022-07-11T13:45:06;19.80;99.90
54518;DHT22;40423;53.176;6.002;2022-07-11T13:47:32;19.90;99.90
54518;DHT22;40423;53.176;6.002;2022-07-11T13:50:02;19.90;99.90
54518;DHT22;40423;53.176;6.002;2022-07-11T13:52:28;20.00;99.90
54518;DHT22;40423;53.176;6.002;2022-07-11T13:54:54;20.00;99.90
54518;DHT22;40423;53.176;6.002;2022-07-11T13:57:20;20.00;99.90
54518;DHT22;40423;53.176;6.002;2022-07-11T13:59:47;20.00;99.90
54518;DHT22;40423;53.176;6.002;2022-07-11T14:02:13;19.90;99.90
54518;DHT22;40423;53.176;6.002;2022-07-11T14:04:39;19.80;99.90
54518;DHT22;40423;53.176;6.002;2022-07-11T14:07:07;19.60;99.90
54518;DHT22;40423;53.176;6.002;2022-07-11T14:09:33;19.40;99.90
54518;DHT22;40423;53.176;6.002;2022-07-11T14:11:59;19.40;99.90
54518;DHT22;40423;53.176;6.002;2022-07-11T14:14:26;19.50;99.90
54518;DHT22;40423;53.176;6.002;2022-07-11T14:16:52;19.60;99.90
54518;DHT22;40423;53.176;6.002;2022-07-11T14:19:18;19.70;99.90
54518;DHT22;40423;53.176;6.002;2022-07-11T14:21:44;19.70;99.90
54518;DHT22;40423;53.176;6.002;2022-07-11T14:24:10;19.80;99.90
54518;DHT22;40423;53.176;6.002;2022-07-11T14:26:37;19.50;99.90
54518;DHT22;40423;53.176;6.002;2022-07-11T14:29:04;19.40;99.90
54518;DHT22;40423;53.176;6.002;2022-07-11T14:31:30;19.50;99.90
54518;DHT22;40423;53.176;6.002;2022-07-11T14:33:58;19.60;99.90
54518;DHT22;40423;53.176;6.002;2022-07-11T14:36:24;19.50;99.90
54518;DHT22;40423;53.176;6.002;2022-07-11T14:38:51;19.50;99.90
54518;DHT22;40423;53.176;6.002;2022-07-11T14:41:16;19.40;99.90
54518;DHT22;40423;53.176;6.002;2022-07-11T14:43:43;19.30;99.90
54518;DHT22;40423;53.176;6.002;2022-07-11T14:46:09;19.40;99.90
54518;DHT22;40423;53.176;6.002;2022-07-11T14:48:35;19.60;99.90
54518;DHT22;40423;53.176;6.002;2022-07-11T14:51:02;19.70;99.90
54518;DHT22;40423;53.176;6.002;2022-07-11T14:53:27;19.90;99.90
54518;DHT22;40423;53.176;6.002;2022-07-11T14:55:53;19.90;99.90
54518;DHT22;40423;53.176;6.002;2022-07-11T14:58:20;19.90;99.90
54518;DHT22;40423;53.176;6.002;2022-07-11T15:00:46;19.90;99.90
54518;DHT22;40423;53.176;6.002;2022-07-11T15:03:11;19.70;99.90
54518;DHT22;40423;53.176;6.002;2022-07-11T15:05:56;19.70;99.90
54518;DHT22;40423;53.176;6.002;2022-07-11T15:08:22;19.80;99.90
54518;DHT22;40423;53.176;6.002;2022-07-11T15:11:06;19.90;99.90
54518;DHT22;40423;53.176;6.002;2022-07-11T15:13:51;19.90;99.90
54518;DHT22;40423;53.176;6.002;2022-07-11T15:16:17;19.90;99.90
54518;DHT22;40423;53.176;6.002;2022-07-11T15:18:42;19.90;99.90
54518;DHT22;40423;53.176;6.002;2022-07-11T15:21:08;19.90;99.90
54518;DHT22;40423;53.176;6.002;2022-07-11T15:23:34;20.00;99.90
54518;DHT22;40423;53.176;6.002;2022-07-11T15:26:00;20.00;99.90
54518;DHT22;40423;53.176;6.002;2022-07-11T15:28:26;20.00;99.90
54518;DHT22;40423;53.176;6.002;2022-07-11T15:30:51;20.10;99.90
54518;DHT22;40423;53.176;6.002;2022-07-11T15:33:17;20.00;99.90
54518;DHT22;40423;53.176;6.002;2022-07-11T15:35:43;20.00;99.90
54518;DHT22;40423;53.176;6.002;2022-07-11T15:38:10;20.00;99.90
54518;DHT22;40423;53.176;6.002;2022-07-11T15:40:36;20.00;99.90
54518;DHT22;40423;53.176;6.002;2022-07-11T15:43:02;20.10;99.90
54518;DHT22;40423;53.176;6.002;2022-07-11T15:45:28;20.20;99.90
54518;DHT22;40423;53.176;6.002;2022-07-11T15:47:56;20.20;99.90
54518;DHT22;40423;53.176;6.002;2022-07-11T15:50:22;20.20;99.90
54518;DHT22;40423;53.176;6.002;2022-07-11T15:52:47;20.00;99.90
54518;DHT22;40423;53.176;6.002;2022-07-11T15:55:13;19.90;99.90
54518;DHT22;40423;53.176;6.002;2022-07-11T15:57:39;20.00;99.90
54518;DHT22;40423;53.176;6.002;2022-07-11T16:00:06;20.00;99.90
54518;DHT22;40423;53.176;6.002;2022-07-11T16:02:33;20.00;99.90
54518;DHT22;40423;53.176;6.002;2022-07-11T16:04:59;19.70;99.90
54518;DHT22;40423;53.176;6.002;2022-07-11T16:07:26;19.80;99.90
54518;DHT22;40423;53.176;6.002;2022-07-11T16:09:52;19.80;99.90
54518;DHT22;40423;53.176;6.002;2022-07-11T16:12:17;19.70;99.90